Time;durP1;ratioP1;P1;durP2;ratioP2;P2;SDS_P1;SDS_P2;PMS_P1;PMS_P2;Temp;Humidity;BMP_temperature;BMP_pressure;BME280_temperature;BME280_humidity;BME280_pressure;Samples;Min_cycle;Max_cycle;Signal;HPM_P1;HPM_P2
2022/04/17 00:01:05;;;;;;;6.93;4.47;;;8.50;99.90;;;;;;5061946;28;20264;-77
2022/04/17 00:03:31;;;;;;;4.77;3.83;;;8.50;99.90;;;;;;5049281;28;20236;-78
2022/04/17 00:05:58;;;;;;;4.23;3.83;;;8.50;99.90;;;;;;5061878;28;20282;-76
2022/04/17 00:08:27;;;;;;;6.00;4.03;;;8.40;99.90;;;;;;5061050;28;20908;-78
2022/04/17 00:10:54;;;;;;;4.03;3.63;;;8.40;99.90;;;;;;5062843;28;20271;-76
2022/04/17 00:13:21;;;;;;;4.87;4.30;;;8.30;99.90;;;;;;5063687;28;20228;-78
2022/04/17 00:15:49;;;;;;;4.90;4.13;;;8.30;99.90;;;;;;5065969;28;20227;-77
2022/04/17 00:18:16;;;;;;;5.43;3.60;;;8.30;99.90;;;;;;5066077;28;20216;-76
2022/04/17 00:20:43;;;;;;;3.93;3.50;;;8.30;99.90;;;;;;5066255;28;20197;-78
2022/04/17 00:23:10;;;;;;;7.70;4.17;;;8.20;99.90;;;;;;5045815;28;20200;-77
2022/04/17 00:25:38;;;;;;;4.27;3.93;;;8.20;99.90;;;;;;5046146;28;20625;-77
2022/04/17 00:28:06;;;;;;;4.27;3.87;;;8.10;99.90;;;;;;5046789;28;20973;-77
2022/04/17 00:30:32;;;;;;;4.30;3.90;;;8.20;99.90;;;;;;5045922;28;20513;-76
2022/04/17 00:32:59;;;;;;;4.67;4.13;;;8.10;99.90;;;;;;5046897;28;20302;-77
2022/04/17 00:35:27;;;;;;;4.70;4.30;;;8.10;99.90;;;;;;5045257;28;20815;-76
2022/04/17 00:37:53;;;;;;;4.57;3.83;;;8.10;99.90;;;;;;5056787;28;20213;-76
2022/04/17 00:40:20;;;;;;;5.20;3.73;;;8.00;99.90;;;;;;5066542;28;20223;-76
2022/04/17 00:42:48;;;;;;;4.53;3.93;;;8.00;99.90;;;;;;5065905;28;20259;-77
2022/04/17 00:45:15;;;;;;;5.47;4.10;;;8.00;99.90;;;;;;5065341;28;20197;-77
2022/04/17 00:47:42;;;;;;;4.37;3.97;;;8.00;99.90;;;;;;5066131;28;20224;-76
2022/04/17 00:50:10;;;;;;;4.70;3.57;;;7.90;99.90;;;;;;5065411;28;20213;-76
2022/04/17 00:52:37;;;;;;;4.97;3.90;;;7.90;99.90;;;;;;5066282;28;20204;-75
2022/04/17 00:55:05;;;;;;;4.60;4.20;;;7.90;99.90;;;;;;5066304;28;20335;-77
2022/04/17 00:57:32;;;;;;;4.33;3.60;;;7.80;99.90;;;;;;5065219;28;21016;-76
2022/04/17 01:00:00;;;;;;;6.33;4.17;;;7.80;99.90;;;;;;5066677;28;20312;-75
2022/04/17 01:02:27;;;;;;;6.37;4.37;;;7.70;99.90;;;;;;5066346;28;20197;-76
2022/04/17 01:04:54;;;;;;;5.17;4.37;;;7.70;99.90;;;;;;5066039;28;20212;-76
2022/04/17 01:07:23;;;;;;;5.17;4.07;;;7.70;99.90;;;;;;5065190;28;20260;-77
2022/04/17 01:09:51;;;;;;;5.23;3.80;;;7.60;99.90;;;;;;5065197;28;20774;-77
2022/04/17 01:12:19;;;;;;;4.77;4.00;;;7.50;99.90;;;;;;5065595;28;20213;-77
2022/04/17 01:14:46;;;;;;;5.30;4.17;;;7.50;99.90;;;;;;5066281;28;20964;-77
2022/04/17 01:17:14;;;;;;;6.03;3.70;;;7.50;99.90;;;;;;5065097;28;20604;-77
2022/04/17 01:19:41;;;;;;;4.90;4.20;;;7.40;99.90;;;;;;5065113;28;20224;-77
2022/04/17 01:22:11;;;;;;;5.87;3.67;;;7.40;99.90;;;;;;5065829;28;20208;-77
2022/04/17 01:27:25;;;;;;;5.13;4.30;;;7.30;99.90;;;;;;5065426;28;20832;-77
2022/04/17 01:29:53;;;;;;;4.90;4.13;;;7.30;99.90;;;;;;5065649;28;20205;-77
2022/04/17 01:32:20;;;;;;;5.77;4.37;;;7.30;99.90;;;;;;5064944;28;20220;-77
2022/04/17 01:34:47;;;;;;;6.57;4.27;;;7.30;99.90;;;;;;5064931;28;20573;-77
2022/04/17 01:37:15;;;;;;;5.47;4.27;;;7.30;99.90;;;;;;5065157;28;20675;-77
2022/04/17 01:39:43;;;;;;;4.67;4.27;;;7.20;99.90;;;;;;5064746;28;20209;-76
2022/04/17 01:42:11;;;;;;;5.90;4.37;;;7.20;99.90;;;;;;5064786;28;20213;-76
2022/04/17 01:44:38;;;;;;;5.17;4.33;;;7.20;99.90;;;;;;5065397;28;20208;-77
2022/04/17 01:47:05;;;;;;;4.60;3.83;;;7.20;99.90;;;;;;5063502;28;20233;-76
2022/04/17 01:49:32;;;;;;;5.83;4.90;;;7.20;99.90;;;;;;5064448;28;20197;-76
2022/04/17 01:52:00;;;;;;;7.87;4.43;;;7.20;99.90;;;;;;5065770;28;20201;-75
2022/04/17 01:54:29;;;;;;;6.03;4.10;;;7.20;99.90;;;;;;5063909;28;20252;-76
2022/04/17 01:56:56;;;;;;;7.07;4.43;;;7.20;99.90;;;;;;5065468;28;20220;-76
2022/04/17 01:59:24;;;;;;;5.70;4.03;;;7.20;99.90;;;;;;5064475;28;20205;-75
2022/04/17 02:01:51;;;;;;;5.67;4.07;;;7.30;99.90;;;;;;5063892;28;20584;-75
2022/04/17 02:04:18;;;;;;;5.33;4.60;;;7.20;99.90;;;;;;5064951;28;20207;-76
2022/04/17 02:06:47;;;;;;;6.40;4.47;;;7.20;99.90;;;;;;5064621;28;20521;-75
2022/04/17 02:09:15;;;;;;;5.80;4.20;;;7.20;99.90;;;;;;5064573;28;20212;-75
2022/04/17 02:11:45;;;;;;;5.93;4.50;;;7.20;99.90;;;;;;5064070;28;20209;-76
2022/04/17 02:14:12;;;;;;;6.00;4.80;;;7.20;99.90;;;;;;5063987;28;20225;-76
2022/04/17 02:16:39;;;;;;;5.37;4.33;;;7.20;99.90;;;;;;5064317;28;20201;-77
2022/04/17 02:19:06;;;;;;;5.07;4.13;;;7.20;99.90;;;;;;5065072;28;20209;-76
2022/04/17 02:21:33;;;;;;;6.50;4.70;;;7.20;99.90;;;;;;5063788;28;20220;-74
2022/04/17 02:24:00;;;;;;;4.83;4.13;;;7.20;99.90;;;;;;5064869;28;20205;-75
2022/04/17 02:26:28;;;;;;;4.97;4.23;;;7.10;99.90;;;;;;5064295;28;20290;-77
2022/04/17 02:28:57;;;;;;;6.00;4.83;;;7.10;99.90;;;;;;5063881;28;20650;-75
2022/04/17 02:31:24;;;;;;;7.17;4.63;;;7.10;99.90;;;;;;5064560;28;20663;-76
2022/04/17 02:33:51;;;;;;;5.13;4.37;;;7.10;99.90;;;;;;5064200;28;20233;-76
2022/04/17 02:36:18;;;;;;;6.83;5.30;;;7.00;99.90;;;;;;5062087;28;20310;-76
2022/04/17 02:38:45;;;;;;;7.13;5.10;;;7.00;99.90;;;;;;5064132;28;20217;-76
2022/04/17 02:41:12;;;;;;;6.27;4.63;;;7.10;99.90;;;;;;5064678;28;20198;-76
2022/04/17 02:43:38;;;;;;;7.27;5.37;;;7.10;99.90;;;;;;5063745;28;20205;-77
2022/04/17 02:46:07;;;;;;;7.73;4.70;;;7.10;99.90;;;;;;5063480;28;20240;-76
2022/04/17 02:48:34;;;;;;;5.67;4.60;;;7.20;99.90;;;;;;5063577;28;20201;-75
2022/04/17 02:51:02;;;;;;;7.80;4.73;;;7.20;99.90;;;;;;5063635;28;20246;-76
2022/04/17 02:53:30;;;;;;;6.57;4.60;;;7.30;99.90;;;;;;5063871;28;20237;-77
2022/04/17 02:55:57;;;;;;;6.13;4.17;;;7.40;99.90;;;;;;5063396;28;20295;-75
2022/04/17 02:58:24;;;;;;;5.70;4.57;;;7.40;99.90;;;;;;5062612;28;20220;-75
2022/04/17 03:06:23;;;;;;;6.40;4.83;;;7.60;99.90;;;;;;5063140;28;20981;-75
2022/04/17 03:08:50;;;;;;;5.40;4.30;;;7.50;99.90;;;;;;5063935;28;20289;-76
2022/04/17 03:11:16;;;;;;;5.57;4.20;;;7.50;99.90;;;;;;5063579;28;20205;-76
2022/04/17 03:13:44;;;;;;;7.17;5.10;;;7.50;99.90;;;;;;5063256;28;20274;-74
2022/04/17 03:16:11;;;;;;;5.27;4.27;;;7.50;99.90;;;;;;5063491;28;20420;-76
2022/04/17 03:18:39;;;;;;;5.40;4.63;;;7.40;99.90;;;;;;5062029;28;20300;-76
2022/04/17 03:21:06;;;;;;;6.17;4.60;;;7.40;99.90;;;;;;5063063;28;20300;-75
2022/04/17 03:23:33;;;;;;;6.80;5.00;;;7.40;99.90;;;;;;5063028;28;20193;-76
2022/04/17 03:26:00;;;;;;;7.03;4.93;;;7.30;99.90;;;;;;5062649;28;20209;-76
2022/04/17 03:28:26;;;;;;;7.50;4.90;;;7.30;99.90;;;;;;5063051;28;20204;-76
2022/04/17 03:30:53;;;;;;;9.47;4.87;;;7.30;99.90;;;;;;5063056;28;20216;-77
2022/04/17 03:33:20;;;;;;;6.10;5.10;;;7.30;99.90;;;;;;5063450;28;20198;-77
2022/04/17 03:35:48;;;;;;;8.20;5.80;;;7.20;99.90;;;;;;5062848;28;20237;-76
2022/04/17 03:38:15;;;;;;;6.53;5.40;;;7.20;99.90;;;;;;5063471;28;20349;-76
2022/04/17 03:40:42;;;;;;;5.47;4.90;;;7.10;99.90;;;;;;5063095;28;20220;-77
2022/04/17 03:43:09;;;;;;;5.90;4.37;;;7.10;99.90;;;;;;5063521;28;20660;-76
2022/04/17 03:45:36;;;;;;;7.13;4.80;;;7.10;99.90;;;;;;5061895;28;20208;-76
2022/04/17 03:48:03;;;;;;;8.23;5.53;;;7.10;99.90;;;;;;5062634;28;20544;-76
2022/04/17 03:50:30;;;;;;;7.53;4.73;;;7.10;99.90;;;;;;5062830;28;20536;-75
2022/04/17 03:52:59;;;;;;;6.40;5.20;;;7.00;99.90;;;;;;5063004;28;20255;-76
2022/04/17 03:55:25;;;;;;;6.73;5.53;;;7.00;99.90;;;;;;5062917;28;20939;-75
2022/04/17 03:57:52;;;;;;;6.87;5.30;;;7.00;99.90;;;;;;5063408;28;20522;-76
2022/04/17 04:00:19;;;;;;;6.53;5.57;;;7.00;99.90;;;;;;5062952;28;20201;-76
2022/04/17 04:02:51;;;;;;;7.27;5.93;;;7.00;99.90;;;;;;5062950;28;20212;-76
2022/04/17 04:05:18;;;;;;;5.60;5.10;;;6.90;99.90;;;;;;5061967;28;20258;-76
2022/04/17 04:07:45;;;;;;;8.37;5.50;;;6.90;99.90;;;;;;5063044;28;20288;-76
2022/04/17 04:10:13;;;;;;;7.53;4.83;;;6.80;99.90;;;;;;5064598;28;20208;-76
2022/04/17 04:12:40;;;;;;;9.17;5.97;;;6.80;99.90;;;;;;5063922;28;20212;-76
2022/04/17 04:15:08;;;;;;;7.80;5.87;;;6.80;99.90;;;;;;5062760;28;20261;-77
2022/04/17 04:17:35;;;;;;;8.00;5.57;;;6.70;99.90;;;;;;5063608;28;20224;-76
2022/04/17 04:20:02;;;;;;;6.50;5.33;;;6.70;99.90;;;;;;5062982;28;20201;-77
2022/04/17 04:22:29;;;;;;;7.47;5.57;;;6.70;99.90;;;;;;5061883;28;20258;-75
2022/04/17 04:24:56;;;;;;;6.43;5.23;;;6.60;99.90;;;;;;5063661;28;20243;-76
2022/04/17 04:30:10;;;;;;;6.40;5.07;;;6.60;99.90;;;;;;5061875;28;20208;-75
2022/04/17 04:32:36;;;;;;;7.37;5.00;;;6.50;99.90;;;;;;5061557;28;20292;-77
2022/04/17 04:35:04;;;;;;;6.43;5.13;;;6.50;99.90;;;;;;5061752;28;20228;-77
2022/04/17 04:37:31;;;;;;;6.23;5.20;;;6.40;99.90;;;;;;5062680;28;20208;-77
2022/04/17 04:39:58;;;;;;;7.90;5.60;;;6.40;99.90;;;;;;5062964;28;20262;-78
2022/04/17 04:42:26;;;;;;;7.20;5.10;;;6.40;99.90;;;;;;5061278;28;20212;-77
2022/04/17 04:47:33;;;;;;;7.63;6.03;;;6.30;99.90;;;;;;5061284;28;20631;-77
2022/04/17 04:50:01;;;;;;;6.50;5.73;;;6.30;99.90;;;;;;5062202;28;20201;-77
2022/04/17 04:52:28;;;;;;;7.30;5.60;;;6.30;99.90;;;;;;5062124;28;20210;-76
2022/04/17 04:54:55;;;;;;;8.40;5.67;;;6.30;99.90;;;;;;5062182;28;20336;-77
2022/04/17 04:57:21;;;;;;;6.90;6.03;;;6.30;99.90;;;;;;5061839;28;20359;-77
2022/04/17 04:59:49;;;;;;;7.07;5.57;;;6.20;99.90;;;;;;5063498;28;20799;-78
2022/04/17 05:02:17;;;;;;;6.67;5.77;;;6.20;99.90;;;;;;5066135;28;20197;-77
2022/04/17 05:04:44;;;;;;;6.63;5.93;;;6.20;99.90;;;;;;5065257;28;20250;-78
2022/04/17 05:07:11;;;;;;;5.47;4.87;;;6.30;99.90;;;;;;5066021;28;20957;-78
2022/04/17 05:09:38;;;;;;;10.60;5.80;;;6.20;99.90;;;;;;5065467;28;20215;-77
2022/04/17 05:12:05;;;;;;;6.70;5.10;;;6.20;99.90;;;;;;5065896;28;20237;-78
2022/04/17 05:14:32;;;;;;;7.60;6.27;;;6.20;99.90;;;;;;5065670;28;20304;-75
2022/04/17 05:17:00;;;;;;;9.00;6.03;;;6.20;99.90;;;;;;5065424;28;20455;-77
2022/04/17 05:19:27;;;;;;;7.30;6.00;;;6.20;99.90;;;;;;5065151;28;20295;-74
2022/04/17 05:21:58;;;;;;;7.10;5.43;;;6.20;99.90;;;;;;5065779;28;20205;-77
2022/04/17 05:24:25;;;;;;;7.40;6.30;;;6.20;99.90;;;;;;5064305;28;20308;-77
2022/04/17 05:26:52;;;;;;;7.50;5.70;;;6.20;99.90;;;;;;5046153;28;20352;-77
2022/04/17 05:29:19;;;;;;;5.73;5.13;;;6.20;99.90;;;;;;5045409;28;20911;-77
2022/04/17 05:31:47;;;;;;;7.63;5.63;;;6.20;99.90;;;;;;5048356;28;20209;-77
2022/04/17 05:34:15;;;;;;;6.83;5.70;;;6.20;99.90;;;;;;5057422;28;20233;-77
2022/04/17 05:36:42;;;;;;;6.60;5.33;;;6.20;99.90;;;;;;5065853;28;20196;-76
2022/04/17 05:39:09;;;;;;;8.10;6.07;;;6.20;99.90;;;;;;5055264;28;20256;-78
2022/04/17 05:41:37;;;;;;;9.13;6.53;;;6.30;99.90;;;;;;5066871;28;20209;-77
2022/04/17 05:44:06;;;;;;;8.07;6.13;;;6.30;99.90;;;;;;5056501;28;20564;-76
2022/04/17 05:46:36;;;;;;;7.77;5.27;;;6.40;99.90;;;;;;5066998;28;20233;-77
2022/04/17 05:49:03;;;;;;;9.60;6.50;;;6.40;99.90;;;;;;5066573;28;20206;-75
2022/04/17 05:51:31;;;;;;;7.33;4.87;;;6.40;99.90;;;;;;5070167;28;20215;-77
2022/04/17 05:53:59;;;;;;;8.37;5.40;;;6.50;99.90;;;;;;5067352;28;20212;-77
2022/04/17 05:56:26;;;;;;;7.73;5.33;;;6.60;99.90;;;;;;5060610;28;20204;-76
2022/04/17 05:58:52;;;;;;;7.17;5.60;;;6.70;99.90;;;;;;5059177;28;20209;-76
2022/04/17 06:01:19;;;;;;;6.03;5.37;;;6.70;99.90;;;;;;5065023;28;20204;-78
2022/04/17 06:03:46;;;;;;;7.33;5.90;;;6.80;99.90;;;;;;5052994;28;20201;-77
2022/04/17 06:06:13;;;;;;;9.03;6.07;;;6.90;99.90;;;;;;5063021;28;20205;-78
2022/04/17 06:08:41;;;;;;;8.53;5.67;;;7.00;99.90;;;;;;5053940;28;20201;-78
2022/04/17 06:11:08;;;;;;;6.90;4.97;;;7.00;99.90;;;;;;5049649;28;20862;-79
2022/04/17 06:13:34;;;;;;;7.30;6.23;;;7.10;99.90;;;;;;5063539;28;20723;-78
2022/04/17 06:16:01;;;;;;;6.27;5.30;;;7.20;99.90;;;;;;5064783;28;20232;-78
2022/04/17 06:18:28;;;;;;;6.27;5.43;;;7.30;99.90;;;;;;5063922;28;20590;-79
2022/04/17 06:20:55;;;;;;;6.47;5.20;;;7.40;99.90;;;;;;5064404;28;20209;-78
2022/04/17 06:23:21;;;;;;;6.47;5.10;;;7.50;99.90;;;;;;5064316;28;20193;-79
2022/04/17 06:25:50;;;;;;;5.43;4.83;;;7.60;99.90;;;;;;5063854;28;20216;-77
2022/04/17 06:28:16;;;;;;;6.90;5.40;;;7.70;99.90;;;;;;5063858;28;20202;-78
2022/04/17 06:30:43;;;;;;;6.83;5.23;;;7.80;99.90;;;;;;5063906;28;20212;-78
2022/04/17 06:33:10;;;;;;;9.53;5.03;;;7.80;99.90;;;;;;5065021;28;20209;-77
2022/04/17 06:35:37;;;;;;;8.17;4.97;;;7.90;99.90;;;;;;5063933;28;20539;-78
2022/04/17 06:38:05;;;;;;;6.93;5.47;;;8.10;99.90;;;;;;5063330;28;20209;-78
2022/04/17 06:40:33;;;;;;;6.13;5.13;;;8.20;99.90;;;;;;5063999;28;20209;-77
2022/04/17 06:43:05;;;;;;;6.67;5.30;;;8.30;99.90;;;;;;5063813;28;20205;-77
2022/04/17 06:45:34;;;;;;;8.17;4.80;;;8.50;99.90;;;;;;5062996;28;20243;-78
2022/04/17 06:48:11;;;;;;;8.07;5.23;;;8.60;99.90;;;;;;5063954;28;20212;-77
2022/04/17 06:50:38;;;;;;;6.10;4.80;;;8.70;99.90;;;;;;5064376;28;20224;-80
2022/04/17 06:53:05;;;;;;;6.17;5.10;;;8.80;99.90;;;;;;5064212;28;20695;-77
2022/04/17 06:55:32;;;;;;;8.83;5.47;;;8.80;99.90;;;;;;5062984;28;20221;-78
2022/04/17 06:58:00;;;;;;;7.43;4.90;;;8.90;99.90;;;;;;5063547;28;20231;-78
2022/04/17 07:00:27;;;;;;;6.63;5.47;;;9.00;99.90;;;;;;5064148;28;20208;-76
2022/04/17 07:02:54;;;;;;;6.23;4.70;;;9.10;99.90;;;;;;5063377;28;20205;-79
2022/04/17 07:05:21;;;;;;;9.10;5.10;;;9.30;99.90;;;;;;5063854;28;20225;-78
2022/04/17 07:07:56;;;;;;;5.70;4.70;;;9.40;99.90;;;;;;5064601;28;20208;-77
2022/04/17 07:10:23;;;;;;;7.43;5.57;;;9.60;99.90;;;;;;5035196;28;20201;-77
2022/04/17 07:12:51;;;;;;;9.40;4.60;;;9.80;99.90;;;;;;5055909;28;20204;-78
2022/04/17 07:15:20;;;;;;;8.67;4.53;;;10.00;99.90;;;;;;5063463;28;20244;-76
2022/04/17 07:17:47;;;;;;;5.43;4.57;;;10.30;99.90;;;;;;5063636;28;20290;-77
2022/04/17 07:20:15;;;;;;;6.30;5.20;;;10.60;99.90;;;;;;5063666;28;20209;-78
2022/04/17 07:22:43;;;;;;;5.00;4.23;;;10.90;99.90;;;;;;5062918;28;20502;-77
2022/04/17 07:25:11;;;;;;;4.73;4.20;;;11.20;99.90;;;;;;5062880;28;20189;-77
2022/04/17 07:27:39;;;;;;;6.43;4.50;;;11.50;99.90;;;;;;5063370;28;20209;-77
2022/04/17 07:30:10;;;;;;;7.07;5.00;;;11.70;99.90;;;;;;5063635;28;20259;-76
2022/04/17 07:32:39;;;;;;;5.97;4.70;;;11.90;99.90;;;;;;5063146;28;20612;-77
2022/04/17 07:35:06;;;;;;;4.90;4.40;;;12.20;99.90;;;;;;5062279;28;20283;-77
2022/04/17 07:37:35;;;;;;;6.40;5.03;;;12.30;99.90;;;;;;5062247;28;20197;-77
2022/04/17 07:40:02;;;;;;;6.37;4.77;;;12.50;99.90;;;;;;5062927;28;20212;-77
2022/04/17 07:42:28;;;;;;;4.77;4.13;;;12.70;99.90;;;;;;5063609;28;20508;-75
2022/04/17 07:44:55;;;;;;;6.10;4.60;;;12.80;99.90;;;;;;5062760;28;20763;-75
2022/04/17 07:47:22;;;;;;;5.90;4.60;;;13.00;99.90;;;;;;5063045;28;20228;-79
2022/04/17 07:49:51;;;;;;;5.67;4.87;;;12.90;99.90;;;;;;5063406;28;20197;-78
2022/04/17 07:52:21;;;;;;;5.17;4.40;;;13.00;99.90;;;;;;5062256;28;20201;-75
2022/04/17 07:54:49;;;;;;;6.23;5.03;;;13.30;99.90;;;;;;5063105;28;20201;-77
2022/04/17 07:57:15;;;;;;;6.10;4.83;;;13.50;99.90;;;;;;5062927;28;20664;-76
2022/04/17 07:59:46;;;;;;;6.10;5.47;;;13.80;99.90;;;;;;5062823;28;20203;-76
2022/04/17 08:02:22;;;;;;;5.20;4.50;;;13.90;99.90;;;;;;5062043;28;20291;-76
2022/04/17 08:04:51;;;;;;;7.17;4.87;;;14.20;99.90;;;;;;5062918;28;20553;-77
2022/04/17 08:07:19;;;;;;;6.47;4.90;;;14.50;99.90;;;;;;5062433;28;20216;-76
2022/04/17 08:09:47;;;;;;;7.17;4.63;;;14.70;99.90;;;;;;5062718;28;20711;-78
2022/04/17 08:12:14;;;;;;;5.07;4.57;;;15.00;99.90;;;;;;5056180;28;20213;-74
2022/04/17 08:14:41;;;;;;;6.97;4.83;;;15.30;99.90;;;;;;5061288;28;20251;-76
2022/04/17 08:17:08;;;;;;;6.13;4.87;;;15.50;99.90;;;;;;5062462;28;20224;-76
2022/04/17 08:19:35;;;;;;;4.67;4.03;;;15.80;99.90;;;;;;5062723;28;20208;-77
2022/04/17 08:22:04;;;;;;;7.70;5.03;;;15.80;99.90;;;;;;5062516;28;20285;-74
2022/04/17 08:24:31;;;;;;;7.55;5.03;;;16.00;99.90;;;;;;5062173;28;20213;-76
2022/04/17 08:26:59;;;;;;;6.57;4.90;;;16.10;99.90;;;;;;5062508;28;20790;-77
2022/04/17 08:29:26;;;;;;;6.07;4.78;;;16.10;99.90;;;;;;5062595;28;20220;-76
2022/04/17 08:31:53;;;;;;;6.15;5.30;;;16.50;99.90;;;;;;5062372;28;20201;-76
2022/04/17 08:34:19;;;;;;;5.85;4.90;;;16.50;99.90;;;;;;5056010;28;20290;-77
2022/04/17 08:36:47;;;;;;;5.40;4.63;;;16.60;99.90;;;;;;5065978;28;20256;-76
2022/04/17 08:39:16;;;;;;;5.10;4.60;;;16.80;99.90;;;;;;5046588;28;20213;-77
2022/04/17 08:41:45;;;;;;;8.65;5.50;;;17.20;99.90;;;;;;5045909;28;20209;-76
2022/04/17 08:44:12;;;;;;;5.43;4.93;;;17.60;99.90;;;;;;5046394;28;20214;-77
2022/04/17 08:46:39;;;;;;;7.70;5.68;;;17.70;99.90;;;;;;5061367;28;20236;-76
2022/04/17 08:49:07;;;;;;;5.82;5.07;;;17.40;99.90;;;;;;5065462;28;20953;-76
2022/04/17 08:51:34;;;;;;;5.05;4.38;;;17.60;99.90;;;;;;5065171;28;20205;-78
2022/04/17 08:54:02;;;;;;;7.07;5.40;;;17.80;99.90;;;;;;5066371;28;20200;-76
2022/04/17 08:56:34;;;;;;;5.22;4.72;;;18.00;99.90;;;;;;5065057;28;20221;-76
2022/04/17 08:59:02;;;;;;;5.18;4.68;;;18.30;99.90;;;;;;5065979;28;20203;-75
2022/04/17 09:01:29;;;;;;;5.28;4.63;;;18.50;99.90;;;;;;5065339;28;20500;-75
2022/04/17 09:03:56;;;;;;;5.53;4.90;;;18.30;99.90;;;;;;5065174;28;20292;-77
2022/04/17 09:06:23;;;;;;;5.07;4.57;;;18.40;99.90;;;;;;5063288;28;20314;-78
2022/04/17 09:08:58;;;;;;;6.80;4.97;;;18.40;99.90;;;;;;5064223;28;20189;-79
2022/04/17 09:11:26;;;;;;;5.95;4.70;;;18.30;99.90;;;;;;5065591;28;20776;-76
2022/04/17 09:13:56;;;;;;;5.78;4.97;;;18.40;99.90;;;;;;5065368;28;20209;-79
2022/04/17 09:16:28;;;;;;;6.03;4.53;;;18.50;99.90;;;;;;5063383;28;20375;-78
2022/04/17 09:18:55;;;;;;;6.80;4.70;;;18.60;99.90;;;;;;5060921;28;20213;-80
2022/04/17 09:21:30;;;;;;;4.55;4.15;;;18.50;99.90;;;;;;5066015;28;20237;-78
2022/04/17 09:24:13;;;;;;;5.40;4.20;;;18.30;99.90;;;;;;5064529;28;20690;-79
2022/04/17 09:26:51;;;;;;;4.90;4.40;;;18.50;99.90;;;;;;5064448;28;20209;-78
2022/04/17 09:29:21;;;;;;;4.15;3.85;;;18.70;99.90;;;;;;5065292;28;20224;-78
2022/04/17 09:31:49;;;;;;;4.97;4.05;;;19.10;99.90;;;;;;5064516;28;20205;-78
2022/04/17 09:34:16;;;;;;;4.30;3.90;;;19.30;99.90;;;;;;5064776;28;20230;-79
2022/04/17 09:36:43;;;;;;;4.07;3.40;;;19.50;99.90;;;;;;5064829;28;20254;-77
2022/04/17 09:39:15;;;;;;;3.70;3.40;;;19.70;99.90;;;;;;5064088;28;20515;-77
2022/04/17 09:41:59;;;;;;;4.10;3.70;;;19.80;99.90;;;;;;5061946;28;20291;-77
2022/04/17 09:44:38;;;;;;;4.57;3.30;;;19.80;99.90;;;;;;5063541;28;20324;-77
2022/04/17 09:47:09;;;;;;;3.40;3.10;;;19.70;99.90;;;;;;5064981;28;20217;-78
2022/04/17 09:49:59;;;;;;;4.60;3.50;;;19.50;99.90;;;;;;5064765;28;20224;-77
2022/04/17 09:52:28;;;;;;;5.22;3.70;;;20.00;99.90;;;;;;5063430;28;20217;-75
2022/04/17 09:54:56;;;;;;;4.13;3.75;;;20.10;99.90;;;;;;5065144;28;20259;-77
2022/04/17 09:57:33;;;;;;;4.70;4.28;;;20.00;99.90;;;;;;5064402;28;20232;-77
2022/04/17 10:00:10;;;;;;;3.88;3.58;;;20.30;99.90;;;;;;5061967;28;21021;-77
2022/04/17 10:02:38;;;;;;;5.28;2.97;;;20.40;99.90;;;;;;5065230;28;20612;-77
2022/04/17 10:05:07;;;;;;;3.22;2.92;;;20.50;99.90;;;;;;5064008;28;20220;-77
2022/04/17 10:07:35;;;;;;;4.05;2.97;;;20.70;99.90;;;;;;5064363;28;20224;-78
2022/04/17 10:10:02;;;;;;;5.38;4.13;;;20.70;99.90;;;;;;5064713;28;20208;-80
2022/04/17 10:12:30;;;;;;;5.55;4.22;;;20.60;99.90;;;;;;5064471;28;20220;-79
2022/04/17 10:15:01;;;;;;;4.30;3.90;;;20.20;99.90;;;;;;5065734;28;20235;-77
2022/04/17 10:17:30;;;;;;;5.28;4.10;;;19.60;99.90;;;;;;5066358;28;20248;-80
2022/04/17 10:20:02;;;;;;;4.32;3.92;;;19.70;99.90;;;;;;5065702;28;20248;-79
2022/04/17 10:22:33;;;;;;;5.75;4.47;;;19.90;99.90;;;;;;5064721;28;20267;-78
2022/04/17 10:25:02;;;;;;;5.10;3.90;;;20.20;99.90;;;;;;5046057;28;20206;-79
2022/04/17 10:27:36;;;;;;;5.00;3.42;;;20.20;99.90;;;;;;5045042;28;20283;-79
2022/04/17 10:30:08;;;;;;;4.82;3.88;;;20.30;99.90;;;;;;5050765;28;20209;-80
2022/04/17 10:33:20;;;;;;;5.45;3.90;;;20.40;99.90;;;;;;5065683;28;20205;-76
2022/04/17 10:36:06;;;;;;;4.95;4.10;;;20.30;99.90;;;;;;5022243;28;20881;-80
2022/04/17 10:38:51;;;;;;;5.03;4.28;;;20.10;99.90;;;;;;5022505;28;20224;-80
2022/04/17 10:41:18;;;;;;;6.20;3.67;;;20.20;99.90;;;;;;5054713;28;20217;-79
2022/04/17 10:43:57;;;;;;;6.03;3.90;;;20.50;99.90;;;;;;5064578;28;20220;-80
2022/04/17 10:46:24;;;;;;;3.15;2.85;;;20.80;99.90;;;;;;5063716;28;20220;-80
2022/04/17 10:48:54;;;;;;;4.07;3.38;;;20.90;99.90;;;;;;5062363;28;20224;-84
2022/04/17 10:51:23;;;;;;;3.55;3.08;;;21.00;99.90;;;;;;5069165;28;20253;-86
2022/04/17 10:54:03;;;;;;;3.40;3.10;;;20.80;99.90;;;;;;5068587;28;20324;-82
2022/04/17 10:56:32;;;;;;;3.67;2.78;;;20.70;99.90;;;;;;5066945;28;20236;-82
2022/04/17 10:59:00;;;;;;;3.65;3.03;;;20.90;99.90;;;;;;5065149;28;20219;-82
2022/04/17 11:01:53;;;;;;;6.78;4.43;;;20.90;99.90;;;;;;5065873;28;20217;-82
2022/04/17 11:04:24;;;;;;;4.90;4.40;;;21.30;99.90;;;;;;5065905;28;20248;-79
2022/04/17 11:07:15;;;;;;;4.75;4.07;;;21.40;99.90;;;;;;5066974;28;20532;-85
2022/04/17 11:09:44;;;;;;;4.95;3.88;;;21.20;99.90;;;;;;5067739;28;20215;-82
2022/04/17 11:12:23;;;;;;;4.93;3.70;;;21.30;99.90;;;;;;5067265;28;20517;-82
2022/04/17 11:14:54;;;;;;;4.07;3.67;;;21.40;99.90;;;;;;5066854;28;20213;-79
2022/04/17 11:17:22;;;;;;;4.75;4.25;;;21.30;99.90;;;;;;5066719;28;20225;-84
2022/04/17 11:19:55;;;;;;;3.70;3.40;;;21.50;99.90;;;;;;5066634;28;20212;-78
2022/04/17 11:22:27;;;;;;;5.07;3.88;;;21.30;99.90;;;;;;5063166;28;20209;-81
2022/04/17 11:25:08;;;;;;;3.72;3.40;;;21.20;99.90;;;;;;5065581;28;20699;-79
2022/04/17 11:27:38;;;;;;;2.97;2.67;;;21.40;99.90;;;;;;5064313;28;20960;-80
2022/04/17 11:30:07;;;;;;;4.47;3.33;;;21.40;99.90;;;;;;5064230;28;20236;-77
2022/04/17 11:32:49;;;;;;;3.25;2.95;;;21.30;99.90;;;;;;5066496;28;20209;-76
2022/04/17 11:35:20;;;;;;;3.33;2.95;;;21.30;99.90;;;;;;5064654;28;20241;-81
2022/04/17 11:37:55;;;;;;;5.18;3.58;;;21.00;99.90;;;;;;5064359;28;20236;-81
2022/04/17 11:40:23;;;;;;;3.92;3.60;;;21.20;99.90;;;;;;5064844;28;20625;-78
2022/04/17 11:42:53;;;;;;;5.00;3.67;;;21.20;99.90;;;;;;5064959;28;20216;-80
2022/04/17 11:45:22;;;;;;;3.88;3.47;;;21.40;99.90;;;;;;5064680;28;20209;-82
2022/04/17 11:47:50;;;;;;;4.20;3.75;;;21.40;99.90;;;;;;5065579;28;20692;-80
2022/04/17 11:50:26;;;;;;;3.88;3.47;;;21.70;99.90;;;;;;5064620;28;20239;-78
2022/04/17 11:52:57;;;;;;;4.35;3.95;;;22.00;99.90;;;;;;5064349;28;20240;-80
2022/04/17 11:55:25;;;;;;;4.65;4.25;;;21.90;99.90;;;;;;5065823;28;20209;-82
2022/04/17 11:57:53;;;;;;;5.88;4.22;;;22.10;99.90;;;;;;5065592;28;20221;-80
2022/04/17 12:00:20;;;;;;;6.10;4.82;;;22.10;99.90;;;;;;5065614;28;20209;-79
2022/04/17 12:02:46;;;;;;;5.28;4.78;;;22.00;99.90;;;;;;5064211;28;20989;-81
2022/04/17 12:05:16;;;;;;;5.10;4.60;;;22.00;99.90;;;;;;5065039;28;20209;-81
2022/04/17 12:07:57;;;;;;;5.28;4.78;;;21.90;99.90;;;;;;5065311;28;20205;-78
2022/04/17 12:10:29;;;;;;;6.65;5.60;;;21.70;99.90;;;;;;5068544;28;20240;-84
2022/04/17 12:12:56;;;;;;;5.00;4.50;;;21.60;99.90;;;;;;5068400;28;20223;-80
2022/04/17 12:15:25;;;;;;;6.93;5.68;;;21.80;99.90;;;;;;5070408;28;20219;-81
2022/04/17 12:18:04;;;;;;;6.68;5.30;;;21.80;99.90;;;;;;5070548;28;20637;-81
2022/04/17 12:20:31;;;;;;;6.30;5.47;;;22.00;99.90;;;;;;5069528;28;20239;-80
2022/04/17 12:22:59;;;;;;;7.40;5.63;;;22.10;99.90;;;;;;5068780;28;20569;-83
2022/04/17 12:25:30;;;;;;;5.90;5.35;;;22.30;99.90;;;;;;5068476;28;20297;-82
2022/04/17 12:27:57;;;;;;;7.93;5.75;;;22.30;99.90;;;;;;5070202;28;20296;-82
2022/04/17 12:30:25;;;;;;;6.10;5.55;;;22.00;99.90;;;;;;5069854;28;20219;-83
2022/04/17 12:32:59;;;;;;;7.45;5.70;;;21.40;99.90;;;;;;5070816;28;20255;-85
2022/04/17 12:35:28;;;;;;;6.70;5.85;;;21.60;99.90;;;;;;5070710;28;20553;-82
2022/04/17 12:38:10;;;;;;;7.15;5.88;;;21.40;99.90;;;;;;5072209;28;20221;-86
2022/04/17 12:40:43;;;;;;;6.63;5.93;;;21.40;99.90;;;;;;5070873;28;20240;-87
2022/04/17 12:43:17;;;;;;;6.45;5.43;;;21.50;99.90;;;;;;5071378;28;20549;-83
2022/04/17 12:45:58;;;;;;;6.28;5.68;;;21.50;99.90;;;;;;5070850;28;20593;-81
2022/04/17 12:48:31;;;;;;;5.82;5.22;;;21.50;99.90;;;;;;5071143;28;20205;-83
2022/04/17 12:51:03;;;;;;;6.75;5.70;;;21.70;99.90;;;;;;5070731;28;20673;-83
2022/04/17 12:53:39;;;;;;;8.70;6.28;;;21.70;99.90;;;;;;5068469;28;20287;-79
2022/04/17 12:56:07;;;;;;;7.47;6.78;;;21.90;99.90;;;;;;5066305;28;20212;-80
2022/04/17 12:58:50;;;;;;;9.40;6.95;;;21.60;99.90;;;;;;5066002;28;20316;-79
2022/04/17 13:01:21;;;;;;;7.82;6.85;;;21.30;99.90;;;;;;5065062;28;20282;-79
2022/04/17 13:03:49;;;;;;;8.15;6.85;;;21.30;99.90;;;;;;5066164;28;20209;-78
2022/04/17 13:06:20;;;;;;;8.05;7.25;;;21.40;99.90;;;;;;5066265;28;20213;-77
2022/04/17 13:09:07;;;;;;;7.05;6.35;;;20.90;99.90;;;;;;5065551;28;20252;-78
2022/04/17 13:11:40;;;;;;;7.50;6.30;;;21.00;99.90;;;;;;5066140;28;20209;-79
2022/04/17 13:14:07;;;;;;;7.97;6.47;;;21.40;99.90;;;;;;5064375;28;20213;-79
2022/04/17 13:16:35;;;;;;;7.38;6.65;;;21.50;99.90;;;;;;5065320;28;20232;-80